Time;durP1;ratioP1;P1;durP2;ratioP2;P2;SDS_P1;SDS_P2;PMS_P1;PMS_P2;Temp;Humidity;BMP_temperature;BMP_pressure;BME280_temperature;BME280_humidity;BME280_pressure;Samples;Min_cycle;Max_cycle;Signal;HPM_P1;HPM_P2
2023/08/04 14:05:40;;;;;;;106.10;3.27;;;18.50;69.60;;;;;;5070250;28;20550;-83
2023/08/04 14:08:06;;;;;;;110.20;4.70;;;16.50;90.50;;;;;;5068714;28;20565;-82
2023/08/04 14:10:31;;;;;;;107.27;3.20;;;15.20;75.70;;;;;;5069655;28;20192;-81
2023/08/04 14:12:57;;;;;;;106.67;3.10;;;14.30;75.30;;;;;;5069770;28;20174;-81
2023/08/04 14:15:24;;;;;;;106.80;3.13;;;14.60;89.60;;;;;;5069205;28;20199;-82
2023/08/04 14:17:49;;;;;;;107.40;3.27;;;14.90;95.00;;;;;;5069293;28;20646;-82
2023/08/04 14:20:18;;;;;;;107.37;2.93;;;15.20;94.20;;;;;;5069359;28;20433;-82
2023/08/04 14:22:44;;;;;;;106.70;2.60;;;15.50;83.60;;;;;;5069915;28;20536;-82
2023/08/04 14:25:10;;;;;;;106.87;2.77;;;16.00;82.20;;;;;;5070577;28;20413;-81
2023/08/04 14:27:35;;;;;;;107.07;2.77;;;16.20;82.50;;;;;;5071062;28;20183;-81
2023/08/04 14:30:01;;;;;;;107.43;3.13;;;16.70;82.60;;;;;;5071126;28;20276;-81
2023/08/04 14:32:26;;;;;;;107.67;3.17;;;17.30;79.90;;;;;;5072255;28;20175;-81
2023/08/04 14:34:52;;;;;;;107.87;3.13;;;18.10;80.80;;;;;;5074261;28;20220;-80
2023/08/04 14:37:17;;;;;;;107.97;2.87;;;18.00;75.90;;;;;;5073175;28;20290;-81
2023/08/04 14:39:43;;;;;;;108.57;3.27;;;18.50;73.40;;;;;;5070672;28;20203;-81
2023/08/04 14:42:15;;;;;;;108.37;3.03;;;18.40;72.50;;;;;;5070475;28;20904;-81
2023/08/04 14:44:41;;;;;;;108.53;3.30;;;18.90;70.00;;;;;;5069579;28;20406;-81
2023/08/04 14:47:06;;;;;;;108.67;3.37;;;18.70;66.90;;;;;;5070204;28;20581;-81
2023/08/04 14:49:32;;;;;;;108.57;3.17;;;18.60;66.00;;;;;;5068043;28;20173;-81
2023/08/04 14:51:58;;;;;;;108.43;2.90;;;18.90;68.60;;;;;;5069390;28;20167;-81
2023/08/04 14:54:23;;;;;;;108.73;3.27;;;18.50;69.40;;;;;;5068193;28;20168;-81
2023/08/04 14:56:50;;;;;;;109.17;3.33;;;19.00;71.00;;;;;;5069862;28;20159;-80
2023/08/04 14:59:15;;;;;;;109.10;3.17;;;19.00;68.90;;;;;;5069868;28;20513;-80
2023/08/04 15:01:41;;;;;;;109.97;3.70;;;19.20;69.80;;;;;;5070165;28;20544;-81
2023/08/04 15:04:06;;;;;;;110.00;3.70;;;19.50;68.50;;;;;;5069665;28;20655;-80
2023/08/04 15:06:32;;;;;;;109.90;3.57;;;19.80;66.80;;;;;;5068964;28;20175;-80
2023/08/04 15:08:58;;;;;;;110.20;3.63;;;19.80;66.70;;;;;;5069795;28;20548;-80
2023/08/04 15:11:23;;;;;;;109.80;3.07;;;19.90;66.50;;;;;;5069300;28;20189;-81
2023/08/04 15:13:49;;;;;;;109.90;3.03;;;19.90;68.20;;;;;;5069360;28;20180;-80
2023/08/04 15:16:14;;;;;;;110.10;3.27;;;20.20;68.00;;;;;;5068748;28;20600;-80
2023/08/04 15:18:40;;;;;;;110.20;3.30;;;20.20;65.80;;;;;;5069031;28;20205;-81
2023/08/04 15:21:06;;;;;;;110.07;3.07;;;20.30;66.80;;;;;;5068806;28;20208;-80
2023/08/04 15:23:32;;;;;;;110.07;3.13;;;20.10;68.70;;;;;;5069135;28;20247;-80
2023/08/04 15:25:58;;;;;;;109.90;2.97;;;20.40;68.80;;;;;;5068510;28;20219;-81
2023/08/04 15:28:24;;;;;;;110.47;3.57;;;20.40;65.50;;;;;;5068804;28;20473;-80
2023/08/04 15:30:50;;;;;;;110.90;3.73;;;20.30;66.20;;;;;;5068759;28;20930;-81
2023/08/04 15:33:15;;;;;;;110.57;3.30;;;20.30;68.10;;;;;;5068713;28;20235;-80
2023/08/04 15:35:41;;;;;;;110.30;3.10;;;20.40;65.00;;;;;;5068001;28;20179;-80
2023/08/04 15:38:07;;;;;;;110.77;3.43;;;20.50;66.80;;;;;;5068549;28;20409;-80
2023/08/04 15:40:33;;;;;;;110.70;3.33;;;20.50;66.60;;;;;;5068172;28;20205;-80
2023/08/04 15:42:59;;;;;;;110.47;3.07;;;20.70;68.00;;;;;;5068264;28;20527;-80
2023/08/04 15:45:24;;;;;;;110.97;3.30;;;21.20;66.40;;;;;;5067711;28;20172;-80
2023/08/04 15:47:50;;;;;;;110.97;3.43;;;20.90;67.40;;;;;;5069739;28;20406;-80
2023/08/04 15:50:16;;;;;;;110.70;3.20;;;21.00;67.50;;;;;;5069030;28;20654;-79
2023/08/04 15:52:41;;;;;;;111.00;3.20;;;21.30;66.20;;;;;;5065545;28;20176;-79
2023/08/04 15:55:07;;;;;;;111.23;3.30;;;21.40;65.80;;;;;;5060285;28;20171;-80
2023/08/04 15:57:33;;;;;;;111.00;3.20;;;21.40;68.30;;;;;;5061389;28;20178;-79
2023/08/04 15:59:58;;;;;;;111.57;3.57;;;21.70;64.80;;;;;;5059951;28;20419;-79
2023/08/04 16:02:24;;;;;;;111.27;3.30;;;21.70;64.00;;;;;;5058016;28;20175;-79
2023/08/04 16:04:52;;;;;;;111.20;3.10;;;22.10;63.00;;;;;;5054667;28;20166;-79
2023/08/04 16:07:18;;;;;;;111.20;3.13;;;22.20;62.00;;;;;;5054810;28;20177;-79
2023/08/04 16:09:43;;;;;;;111.07;3.40;;;22.40;61.40;;;;;;5054595;28;20414;-79
2023/08/04 16:12:09;;;;;;;111.20;3.20;;;21.90;57.50;;;;;;5054497;28;20563;-79
2023/08/04 16:14:35;;;;;;;111.17;3.30;;;21.80;61.90;;;;;;5054144;28;20169;-79
2023/08/04 16:17:00;;;;;;;110.77;3.10;;;21.70;60.00;;;;;;5054184;28;20176;-79
2023/08/04 16:19:26;;;;;;;111.63;3.60;;;21.30;64.70;;;;;;5054023;28;20174;-79
2023/08/04 16:21:51;;;;;;;111.00;3.40;;;21.30;66.70;;;;;;5054076;28;20205;-79
2023/08/04 16:24:17;;;;;;;111.67;3.73;;;21.50;66.10;;;;;;5054084;28;20577;-79
2023/08/04 16:26:43;;;;;;;111.47;3.37;;;21.70;70.10;;;;;;5053803;28;20251;-79
2023/08/04 16:29:08;;;;;;;111.27;3.27;;;21.90;64.80;;;;;;5053969;28;20243;-79
2023/08/04 16:31:34;;;;;;;111.20;3.13;;;21.90;63.20;;;;;;5054158;28;20206;-79
2023/08/04 16:34:03;;;;;;;111.97;3.30;;;22.00;65.70;;;;;;5053968;28;20225;-79
2023/08/04 16:36:29;;;;;;;111.47;3.20;;;21.70;64.60;;;;;;5053617;28;20186;-78
2023/08/04 16:38:54;;;;;;;111.47;3.20;;;25.00;68.50;;;;;;5053843;28;20467;-79
2023/08/04 16:41:20;;;;;;;111.50;3.30;;;22.10;66.60;;;;;;5053430;28;20291;-79
2023/08/04 16:43:46;;;;;;;111.50;3.20;;;21.50;67.20;;;;;;5053701;28;20160;-79
2023/08/04 16:46:11;;;;;;;111.57;3.23;;;21.70;66.60;;;;;;5053432;28;20187;-78
2023/08/04 16:48:37;;;;;;;111.70;3.47;;;21.20;62.60;;;;;;5053717;28;20194;-78
2023/08/04 16:51:03;;;;;;;111.73;3.33;;;20.90;73.50;;;;;;5053475;28;20230;-78
2023/08/04 16:53:29;;;;;;;111.67;3.20;;;20.90;70.50;;;;;;5053646;28;20420;-78
2023/08/04 16:56:05;;;;;;;111.70;3.23;;;21.30;68.70;;;;;;5053159;28;20403;-78
2023/08/04 16:58:31;;;;;;;111.93;3.47;;;21.40;71.40;;;;;;5053443;28;20787;-78
2023/08/04 17:00:59;;;;;;;111.20;2.77;;;21.00;63.80;;;;;;5053285;28;20472;-78
2023/08/04 17:03:25;;;;;;;111.30;2.80;;;20.50;62.70;;;;;;5052712;28;20409;-78
2023/08/04 17:05:51;;;;;;;111.30;2.80;;;20.20;69.40;;;;;;5052605;28;20910;-78
2023/08/04 17:08:16;;;;;;;111.90;3.30;;;19.80;70.60;;;;;;5053220;28;20409;-78
2023/08/04 17:10:42;;;;;;;112.13;3.27;;;19.70;69.60;;;;;;5076539;22;20668;-75
2023/08/04 17:13:07;;;;;;;111.77;3.20;;;19.60;70.20;;;;;;5053222;28;20169;-76
2023/08/04 17:15:35;;;;;;;111.87;3.00;;;19.40;69.30;;;;;;5035531;28;20268;-75
2023/08/04 17:18:01;;;;;;;111.23;3.07;;;19.30;70.70;;;;;;5053080;28;20218;-76
2023/08/04 17:20:26;;;;;;;111.17;2.83;;;19.50;70.50;;;;;;5055018;28;20464;-78
2023/08/04 17:22:52;;;;;;;111.47;3.10;;;19.80;68.70;;;;;;5057286;28;20243;-78
2023/08/04 17:25:18;;;;;;;111.90;3.20;;;20.40;66.30;;;;;;5038669;28;20465;-78
2023/08/04 17:27:43;;;;;;;110.90;2.77;;;19.80;69.00;;;;;;5057020;28;20234;-78
2023/08/04 17:30:10;;;;;;;111.90;3.50;;;20.30;69.00;;;;;;5039284;28;20168;-78
2023/08/04 17:32:37;;;;;;;111.40;3.00;;;20.30;63.90;;;;;;5056679;28;20173;-79
2023/08/04 17:35:04;;;;;;;111.60;3.20;;;20.50;64.10;;;;;;5056119;28;20406;-78
2023/08/04 17:37:29;;;;;;;111.47;3.03;;;20.00;64.80;;;;;;5038118;28;20417;-78
2023/08/04 17:39:55;;;;;;;111.60;3.20;;;19.30;70.00;;;;;;5038040;28;20472;-78
2023/08/04 17:42:20;;;;;;;111.37;3.10;;;19.60;76.70;;;;;;5056005;28;20235;-78
2023/08/04 17:44:46;;;;;;;111.57;3.30;;;19.40;76.20;;;;;;5055971;28;20238;-78
2023/08/04 17:47:12;;;;;;;111.20;2.97;;;19.50;76.10;;;;;;5056262;28;20179;-79
2023/08/04 17:49:37;;;;;;;111.57;3.20;;;20.00;75.10;;;;;;5055402;28;20252;-78
2023/08/04 17:52:03;;;;;;;111.37;3.10;;;20.40;66.90;;;;;;5054899;28;20198;-77
2023/08/04 17:54:28;;;;;;;112.00;3.50;;;20.80;65.90;;;;;;5054886;28;20176;-79
2023/08/04 17:56:55;;;;;;;111.37;3.03;;;21.00;66.50;;;;;;5055139;28;20180;-78
2023/08/04 17:59:21;;;;;;;111.77;3.47;;;21.30;63.70;;;;;;5055690;28;20166;-79
2023/08/04 18:01:46;;;;;;;111.70;3.40;;;21.40;61.40;;;;;;5055033;28;20454;-78
2023/08/04 18:04:12;;;;;;;111.37;3.27;;;21.50;61.90;;;;;;5055519;28;20178;-78
2023/08/04 18:06:37;;;;;;;111.90;3.57;;;21.50;62.70;;;;;;5053616;28;20174;-76
2023/08/04 18:09:03;;;;;;;111.03;2.80;;;21.50;61.30;;;;;;5052008;28;20175;-76
2023/08/04 18:11:29;;;;;;;111.20;2.90;;;20.90;63.70;;;;;;5051954;28;20442;-76
2023/08/04 18:13:55;;;;;;;111.23;3.10;;;21.00;65.40;;;;;;5034155;28;20172;-75
2023/08/04 18:16:21;;;;;;;111.47;3.20;;;20.20;67.50;;;;;;5051383;28;20402;-76
2023/08/04 18:18:47;;;;;;;112.27;3.57;;;19.80;69.20;;;;;;5051993;28;20171;-75
2023/08/04 18:21:12;;;;;;;111.70;3.23;;;19.80;72.90;;;;;;5051810;28;20503;-75
2023/08/04 18:23:38;;;;;;;111.67;3.30;;;19.20;74.80;;;;;;5033888;28;20199;-75
2023/08/04 18:26:04;;;;;;;111.57;3.23;;;19.00;76.80;;;;;;5051631;28;20516;-75
2023/08/04 18:28:31;;;;;;;111.60;3.20;;;19.20;75.00;;;;;;5051713;28;20172;-75
2023/08/04 18:30:57;;;;;;;111.37;3.00;;;18.90;73.00;;;;;;5051636;28;20430;-75
2023/08/04 18:33:23;;;;;;;116.10;3.97;;;18.70;76.40;;;;;;5051702;28;20457;-75
2023/08/04 18:35:49;;;;;;;112.03;3.53;;;18.60;77.20;;;;;;5051585;28;20446;-75
2023/08/04 18:38:16;;;;;;;111.47;3.03;;;18.60;76.00;;;;;;5051558;28;20443;-75
2023/08/04 18:40:42;;;;;;;111.60;3.20;;;18.30;77.80;;;;;;5033747;28;20208;-75
2023/08/04 18:43:07;;;;;;;111.20;2.80;;;18.30;78.90;;;;;;5051643;28;20429;-75
2023/08/04 18:45:33;;;;;;;111.43;2.80;;;18.80;75.00;;;;;;5051385;28;20410;-75
2023/08/04 18:47:58;;;;;;;111.37;2.73;;;19.70;70.40;;;;;;5051588;28;20164;-75
2023/08/04 18:50:24;;;;;;;111.67;3.03;;;19.60;70.80;;;;;;5051653;28;20190;-75
2023/08/04 18:52:49;;;;;;;111.80;3.00;;;19.30;67.60;;;;;;5051506;28;20172;-75
2023/08/04 18:55:15;;;;;;;111.57;3.03;;;19.20;65.30;;;;;;5051346;28;20258;-75
2023/08/04 18:57:40;;;;;;;111.77;3.07;;;19.30;66.30;;;;;;5051379;28;20175;-75
2023/08/04 19:00:08;;;;;;;111.97;3.23;;;19.70;64.70;;;;;;5051264;28;20183;-75
2023/08/04 19:02:33;;;;;;;111.73;2.97;;;19.80;61.60;;;;;;5032182;28;20177;-75
2023/08/04 19:04:59;;;;;;;112.07;3.23;;;19.90;62.90;;;;;;5050134;28;20488;-74
2023/08/04 19:07:25;;;;;;;111.87;3.23;;;19.90;60.40;;;;;;5051324;28;20179;-75
2023/08/04 19:09:50;;;;;;;112.03;3.40;;;20.20;61.50;;;;;;5051553;28;20671;-75
2023/08/04 19:12:16;;;;;;;111.80;3.30;;;20.20;59.60;;;;;;5051231;28;20210;-75
2023/08/04 19:14:41;;;;;;;111.87;3.17;;;19.70;62.30;;;;;;5051091;28;20174;-75
2023/08/04 19:17:07;;;;;;;111.50;2.80;;;19.70;63.90;;;;;;5051335;28;20256;-75
2023/08/04 19:19:33;;;;;;;112.10;3.43;;;20.10;62.10;;;;;;5051318;28;20178;-75
2023/08/04 19:21:59;;;;;;;112.20;3.43;;;20.40;59.30;;;;;;5051115;28;20210;-75
2023/08/04 19:24:25;;;;;;;111.60;2.80;;;20.20;59.80;;;;;;5051239;28;20587;-75
2023/08/04 19:26:51;;;;;;;111.67;3.10;;;19.70;61.20;;;;;;5051388;28;20439;-75
2023/08/04 19:29:17;;;;;;;111.67;2.93;;;19.50;66.70;;;;;;5055053;28;20176;-75
2023/08/04 19:31:42;;;;;;;111.87;3.27;;;18.70;70.00;;;;;;5055043;28;20430;-75
2023/08/04 19:34:08;;;;;;;111.97;3.37;;;18.80;72.90;;;;;;5054961;28;20655;-75
2023/08/04 19:36:33;;;;;;;111.80;3.03;;;18.80;74.50;;;;;;5054622;28;20177;-75
2023/08/04 19:38:59;;;;;;;111.63;3.00;;;18.00;80.30;;;;;;5055320;28;20262;-77
2023/08/04 19:41:25;;;;;;;111.80;3.10;;;17.90;83.60;;;;;;5055406;28;20207;-78
2023/08/04 19:43:50;;;;;;;112.00;3.40;;;18.10;82.50;;;;;;5055269;28;20907;-77
2023/08/04 19:46:16;;;;;;;112.03;3.37;;;18.40;81.10;;;;;;5052319;28;20194;-77
2023/08/04 19:48:42;;;;;;;112.07;3.40;;;17.10;82.40;;;;;;5052219;28;20252;-77
2023/08/04 19:51:12;;;;;;;112.37;3.57;;;18.50;79.20;;;;;;5052958;28;20205;-77
2023/08/04 19:53:38;;;;;;;111.60;3.00;;;19.10;69.10;;;;;;5047084;28;20176;-74
2023/08/04 19:56:04;;;;;;;111.77;3.30;;;18.60;74.50;;;;;;5051512;28;20424;-75
2023/08/04 19:58:30;;;;;;;112.50;3.60;;;18.60;72.30;;;;;;5047770;28;20436;-75
2023/08/04 20:00:56;;;;;;;112.27;3.63;;;18.80;72.10;;;;;;5050892;28;20322;-76
2023/08/04 20:03:23;;;;;;;111.77;3.30;;;19.00;71.20;;;;;;5046535;28;20239;-75
2023/08/04 20:05:49;;;;;;;111.80;3.13;;;18.90;71.30;;;;;;5054071;28;20740;-75
2023/08/04 20:08:14;;;;;;;111.80;3.13;;;19.30;70.40;;;;;;5054135;28;20409;-75
2023/08/04 20:10:40;;;;;;;111.87;3.13;;;19.50;67.00;;;;;;5047583;28;20696;-75
2023/08/04 20:13:05;;;;;;;111.80;3.30;;;20.30;62.90;;;;;;5054216;28;20263;-76
2023/08/04 20:15:32;;;;;;;112.10;3.40;;;20.00;60.70;;;;;;5053830;28;20174;-76
2023/08/04 20:17:58;;;;;;;111.70;3.20;;;20.10;60.00;;;;;;5053516;28;20228;-76
2023/08/04 20:20:24;;;;;;;111.80;3.00;;;20.10;59.20;;;;;;5053889;28;20455;-76
2023/08/04 20:22:50;;;;;;;112.17;3.47;;;20.40;58.20;;;;;;5054101;28;20401;-75
2023/08/04 20:25:17;;;;;;;112.10;3.37;;;20.30;58.70;;;;;;5052463;28;20426;-76
2023/08/04 20:27:42;;;;;;;111.80;3.10;;;20.20;58.50;;;;;;5053864;28;20199;-75
2023/08/04 20:30:08;;;;;;;111.77;3.00;;;20.10;58.20;;;;;;5052536;28;20917;-76
2023/08/04 20:32:34;;;;;;;111.57;3.10;;;20.00;58.40;;;;;;5052855;28;20174;-75
2023/08/04 20:35:00;;;;;;;112.27;3.33;;;20.20;58.90;;;;;;5053426;28;20450;-75
2023/08/04 20:37:25;;;;;;;112.20;3.40;;;20.10;59.60;;;;;;5053646;28;20181;-75
2023/08/04 20:39:54;;;;;;;112.67;3.47;;;20.10;59.10;;;;;;5053540;28;20201;-75
2023/08/04 20:42:20;;;;;;;112.27;3.37;;;20.00;58.50;;;;;;5053599;28;20215;-75
2023/08/04 20:44:55;;;;;;;112.23;3.43;;;20.10;58.90;;;;;;5053345;28;20410;-75
2023/08/04 20:47:21;;;;;;;112.10;3.37;;;20.10;59.50;;;;;;5053152;28;20416;-75
2023/08/04 20:49:47;;;;;;;111.77;3.10;;;20.20;57.20;;;;;;5053566;28;20438;-75
2023/08/04 20:52:12;;;;;;;111.97;3.03;;;20.30;58.20;;;;;;5053586;28;20218;-75
2023/08/04 20:54:39;;;;;;;112.57;3.50;;;20.30;58.20;;;;;;5051868;28;20564;-75
2023/08/04 20:57:04;;;;;;;111.83;3.10;;;20.50;57.70;;;;;;5053520;28;20408;-75
2023/08/04 20:59:31;;;;;;;111.90;3.00;;;20.20;59.20;;;;;;5053338;28;20775;-75
2023/08/04 21:01:57;;;;;;;112.27;3.50;;;20.40;58.30;;;;;;5053292;28;20609;-76
2023/08/04 21:04:22;;;;;;;111.90;2.90;;;20.30;58.20;;;;;;5051871;28;20511;-76
2023/08/04 21:06:48;;;;;;;111.53;3.00;;;20.30;58.20;;;;;;5053351;28;20248;-76
2023/08/04 21:09:13;;;;;;;111.90;3.20;;;20.50;57.50;;;;;;5053309;28;20170;-75
2023/08/04 21:11:43;;;;;;;113.73;3.50;;;20.60;56.70;;;;;;5053165;28;20586;-76
2023/08/04 21:14:09;;;;;;;112.17;3.30;;;20.70;56.90;;;;;;5052966;28;20182;-76
2023/08/04 21:16:34;;;;;;;112.37;3.33;;;20.40;56.60;;;;;;5053108;28;20412;-76
2023/08/04 21:19:00;;;;;;;112.47;3.60;;;20.70;55.40;;;;;;5052734;28;20425;-75
2023/08/04 21:21:25;;;;;;;118.87;4.43;;;20.70;56.00;;;;;;5048036;28;20292;-75
2023/08/04 21:23:51;;;;;;;112.13;3.10;;;20.50;55.90;;;;;;5052787;28;20229;-75
2023/08/04 21:26:17;;;;;;;112.00;3.40;;;20.40;56.30;;;;;;5052362;28;20544;-75
2023/08/04 21:28:42;;;;;;;111.60;3.00;;;20.60;55.00;;;;;;5052745;28;20165;-75
2023/08/04 21:31:08;;;;;;;111.73;3.17;;;21.00;55.60;;;;;;5052088;28;20200;-75
2023/08/04 21:33:33;;;;;;;112.00;3.30;;;20.40;56.30;;;;;;5052595;28;20172;-75
2023/08/04 21:36:00;;;;;;;112.07;3.30;;;20.30;56.90;;;;;;5052379;28;20243;-75
2023/08/04 21:38:27;;;;;;;111.93;3.37;;;20.30;57.50;;;;;;5052948;28;20209;-76
2023/08/04 21:40:52;;;;;;;112.27;3.57;;;20.10;57.70;;;;;;5052375;28;20938;-76
2023/08/04 21:43:20;;;;;;;111.90;3.10;;;20.10;58.00;;;;;;5052435;28;20412;-75
2023/08/04 21:45:45;;;;;;;111.90;3.10;;;20.20;57.60;;;;;;5052127;28;20177;-76
2023/08/04 21:48:11;;;;;;;111.87;3.13;;;20.30;58.00;;;;;;5052101;28;20420;-76
2023/08/04 21:50:37;;;;;;;112.03;3.47;;;20.50;55.30;;;;;;5051730;28;20262;-75
2023/08/04 21:53:02;;;;;;;112.87;3.70;;;20.60;55.20;;;;;;5052257;28;20177;-75
2023/08/04 21:55:28;;;;;;;112.27;3.43;;;20.60;55.00;;;;;;5051961;28;20371;-75
2023/08/04 21:57:53;;;;;;;112.07;3.47;;;20.80;54.00;;;;;;5052329;28;20660;-76
2023/08/04 22:00:22;;;;;;;111.53;3.07;;;20.80;53.50;;;;;;5051906;28;20659;-75
2023/08/04 22:02:52;;;;;;;111.80;3.00;;;20.70;54.30;;;;;;5050957;28;20174;-75
2023/08/04 22:05:18;;;;;;;111.87;3.33;;;20.80;53.80;;;;;;5051717;28;20404;-75
2023/08/04 22:07:44;;;;;;;111.83;3.20;;;21.00;53.30;;;;;;5050969;28;20413;-75
2023/08/04 22:10:11;;;;;;;114.60;4.00;;;20.70;54.10;;;;;;5044312;28;20416;-75
2023/08/04 22:12:37;;;;;;;112.50;3.60;;;20.60;54.40;;;;;;5043762;28;20424;-75
2023/08/04 22:15:04;;;;;;;113.30;3.53;;;20.80;53.40;;;;;;5051286;28;20408;-75
2023/08/04 22:17:29;;;;;;;112.00;3.37;;;20.60;54.50;;;;;;5051650;28;20170;-75
2023/08/04 22:19:55;;;;;;;111.90;3.30;;;20.50;54.20;;;;;;5051738;28;20412;-75
2023/08/04 22:22:21;;;;;;;112.90;3.80;;;20.30;55.20;;;;;;5051897;28;20211;-75
2023/08/04 22:24:47;;;;;;;111.80;3.20;;;20.40;55.00;;;;;;5051500;28;20175;-75
2023/08/04 22:27:14;;;;;;;111.77;3.10;;;20.60;56.20;;;;;;5051710;28;20773;-75
2023/08/04 22:29:40;;;;;;;112.90;3.77;;;20.30;54.70;;;;;;5051470;28;20387;-75
2023/08/04 22:32:06;;;;;;;111.90;3.13;;;20.00;55.90;;;;;;5051672;28;20886;-75
2023/08/04 22:34:32;;;;;;;111.97;3.17;;;19.90;57.80;;;;;;5051589;28;20506;-75
2023/08/04 22:36:58;;;;;;;111.80;3.00;;;20.00;57.40;;;;;;5051640;28;20852;-75
2023/08/04 22:39:23;;;;;;;111.80;3.10;;;20.10;56.30;;;;;;5051430;28;20256;-76
2023/08/04 22:41:49;;;;;;;112.40;3.57;;;20.30;57.30;;;;;;5051461;28;20209;-75
2023/08/04 22:44:14;;;;;;;112.27;3.47;;;20.00;57.90;;;;;;5051482;28;20643;-76
2023/08/04 22:46:40;;;;;;;111.90;3.17;;;19.90;58.10;;;;;;5050989;28;20636;-75
2023/08/04 22:49:05;;;;;;;111.77;2.93;;;20.00;57.30;;;;;;5051528;28;20340;-76
2023/08/04 22:51:31;;;;;;;111.60;2.77;;;19.70;60.20;;;;;;5051477;28;20201;-75
2023/08/04 22:54:00;;;;;;;112.10;3.40;;;19.80;58.60;;;;;;5051557;28;20182;-75
2023/08/04 22:56:26;;;;;;;112.33;3.07;;;20.00;57.90;;;;;;5051219;28;20178;-75
2023/08/04 22:58:52;;;;;;;112.40;3.60;;;20.00;57.60;;;;;;5051580;28;20406;-76
2023/08/04 23:01:18;;;;;;;111.97;2.93;;;19.80;58.50;;;;;;5051316;28;20509;-75
2023/08/04 23:03:43;;;;;;;112.37;3.50;;;19.90;57.80;;;;;;5054913;28;20499;-75
2023/08/04 23:06:13;;;;;;;112.27;3.37;;;20.00;58.10;;;;;;5054900;28;20175;-75
2023/08/04 23:08:39;;;;;;;111.90;2.90;;;20.00;57.60;;;;;;5055557;28;20198;-75
2023/08/04 23:11:04;;;;;;;112.23;3.20;;;20.10;57.20;;;;;;5054749;28;20874;-75
2023/08/04 23:13:30;;;;;;;112.10;3.00;;;20.10;56.90;;;;;;5055435;28;20553;-75
2023/08/04 23:15:58;;;;;;;112.37;3.30;;;20.00;56.90;;;;;;5054950;28;20178;-75
2023/08/04 23:18:24;;;;;;;112.60;3.50;;;20.00;56.70;;;;;;5074114;22;20225;-80
2023/08/04 23:20:50;;;;;;;112.30;3.20;;;20.00;57.50;;;;;;5039436;28;20452;-80
2023/08/04 23:23:17;;;;;;;112.70;3.60;;;20.00;56.60;;;;;;5039554;28;20212;-80
2023/08/04 23:25:44;;;;;;;112.27;3.13;;;20.00;56.80;;;;;;5039130;28;20407;-80
2023/08/04 23:28:10;;;;;;;112.77;3.67;;;20.00;56.90;;;;;;5039092;28;20524;-80
2023/08/04 23:30:55;;;;;;;112.40;3.20;;;20.20;55.40;;;;;;5039589;28;20420;-80
2023/08/04 23:33:21;;;;;;;112.00;3.10;;;20.40;54.00;;;;;;5039676;28;20427;-80
2023/08/04 23:35:52;;;;;;;113.17;4.07;;;20.10;56.60;;;;;;5038724;28;20415;-80
2023/08/04 23:38:22;;;;;;;112.57;3.53;;;19.80;57.20;;;;;;5038786;28;20446;-80
2023/08/04 23:40:47;;;;;;;113.03;3.73;;;22.40;58.70;;;;;;5040614;28;20451;-80
2023/08/04 23:43:13;;;;;;;112.83;3.30;;;20.30;57.00;;;;;;5039473;28;20849;-80
2023/08/04 23:45:39;;;;;;;112.37;3.30;;;19.90;56.70;;;;;;5039269;28;20170;-80
2023/08/04 23:48:05;;;;;;;112.70;3.57;;;19.90;57.00;;;;;;5033401;28;20422;-80
2023/08/04 23:50:30;;;;;;;112.30;3.17;;;20.10;57.90;;;;;;5046618;28;20170;-80
2023/08/04 23:52:56;;;;;;;112.97;3.53;;;20.00;56.70;;;;;;5047650;28;20180;-80
2023/08/04 23:55:21;;;;;;;112.60;3.30;;;19.90;56.90;;;;;;5047554;28;20196;-80
2023/08/04 23:57:47;;;;;;;112.17;3.00;;;19.80;57.20;;;;;;5047288;28;20191;-80
